createdAt,value
2018-09-27T00:02:58.791Z,45.95
2018-09-27T00:07:41.623Z,45.97
2018-09-27T00:12:24.581Z,45.76
2018-09-27T00:17:07.683Z,45.94
2018-09-27T00:21:51.194Z,45.52
2018-09-27T00:26:34.039Z,45.36
2018-09-27T00:31:18.104Z,45.64
2018-09-27T00:36:01.004Z,45.53
2018-09-27T00:40:43.888Z,45.20
2018-09-27T00:45:28.176Z,44.18
2018-09-27T00:50:11.240Z,44.34
2018-09-27T00:54:55.347Z,44.19
2018-09-27T00:59:38.206Z,44.65
2018-09-27T01:04:21.152Z,45.12
2018-09-27T01:09:05.473Z,44.45
2018-09-27T01:13:48.387Z,44.24
2018-09-27T01:18:31.231Z,45.10
2018-09-27T01:23:14.151Z,44.59
2018-09-27T01:27:57.003Z,44.76
2018-09-27T01:32:40.955Z,44.04
2018-09-27T01:37:23.838Z,44.71
2018-09-27T01:42:07.732Z,44.85
2018-09-27T01:46:52.678Z,44.87
2018-09-27T01:51:36.608Z,45.04
2018-09-27T01:56:19.498Z,44.94
2018-09-27T02:01:02.601Z,45.13
2018-09-27T02:05:45.449Z,45.09
2018-09-27T02:10:28.302Z,45.37
2018-09-27T02:15:11.247Z,45.72
2018-09-27T02:19:54.089Z,46.22
2018-09-27T02:24:39.059Z,46.23
2018-09-27T02:29:21.881Z,46.03
2018-09-27T02:34:04.952Z,46.68
2018-09-27T02:38:47.797Z,46.44
2018-09-27T02:43:30.872Z,47.25
2018-09-27T02:48:13.737Z,47.12
2018-09-27T02:52:58.040Z,46.89
2018-09-27T02:57:40.882Z,47.15
2018-09-27T03:02:23.910Z,46.38
2018-09-27T03:07:07.200Z,47.16
2018-09-27T03:11:50.228Z,46.36
2018-09-27T03:16:33.067Z,46.11
2018-09-27T03:21:17.009Z,46.07
2018-09-27T03:25:59.863Z,46.62
2018-09-27T03:30:42.763Z,46.76
2018-09-27T03:35:25.646Z,46.97
2018-09-27T03:40:08.983Z,46.25
2018-09-27T03:44:51.917Z,47.10
2018-09-27T03:49:34.779Z,46.92
2018-09-27T03:54:17.684Z,47.33
2018-09-27T03:59:02.295Z,46.64
2018-09-27T04:03:46.281Z,46.94
2018-09-27T04:08:29.104Z,46.75
2018-09-27T04:13:12.589Z,46.50
2018-09-27T04:17:55.444Z,46.63
2018-09-27T04:22:38.331Z,46.42
2018-09-27T04:27:21.198Z,46.43
2018-09-27T04:32:04.111Z,46.42
2018-09-27T04:36:47.007Z,46.40
2018-09-27T04:41:33.708Z,46.43
2018-09-27T04:46:16.570Z,46.10
2018-09-27T04:50:59.487Z,45.75
2018-09-27T04:55:42.344Z,47.44
2018-09-27T05:00:28.551Z,46.23
2018-09-27T05:05:11.441Z,46.06
2018-09-27T05:09:54.280Z,46.08
2018-09-27T05:14:37.169Z,46.09
2018-09-27T05:19:20.087Z,45.94
2018-09-27T05:24:03.315Z,46.10
2018-09-27T05:28:46.232Z,45.83
2018-09-27T05:33:29.272Z,46.22
2018-09-27T05:38:12.150Z,46.03
2018-09-27T05:42:56.036Z,45.74
2018-09-27T05:47:38.907Z,46.25
2018-09-27T05:52:21.797Z,46.01
2018-09-27T05:57:04.666Z,46.54
2018-09-27T06:01:47.561Z,46.86
2018-09-27T06:06:30.424Z,46.85
2018-09-27T06:11:13.338Z,46.66
2018-09-27T06:15:56.196Z,46.38
2018-09-27T06:20:39.078Z,45.82
2018-09-27T06:25:21.939Z,45.39
2018-09-27T06:30:04.984Z,45.48
2018-09-27T06:34:47.824Z,45.03
2018-09-27T06:39:32.738Z,45.16
2018-09-27T06:44:15.807Z,44.26
2018-09-27T06:48:58.682Z,43.70
2018-09-27T06:53:41.720Z,43.61
2018-09-27T06:58:24.646Z,43.36
2018-09-27T07:03:07.594Z,42.60
2018-09-27T07:07:50.452Z,42.65
2018-09-27T07:12:33.438Z,40.84
2018-09-27T07:17:17.527Z,40.58
2018-09-27T07:22:00.392Z,40.20
2018-09-27T07:26:43.438Z,40.72
2018-09-27T07:31:26.508Z,40.19
2018-09-27T07:36:09.402Z,40.59
2018-09-27T07:40:52.461Z,40.01
2018-09-27T07:45:35.405Z,38.67
2018-09-27T07:50:18.475Z,39.03
2018-09-27T07:55:01.337Z,39.75
2018-09-27T07:59:44.221Z,38.78
2018-09-27T08:04:27.082Z,39.66
2018-09-27T08:09:09.956Z,38.35
2018-09-27T08:13:52.871Z,37.83
2018-09-27T08:18:35.831Z,37.80
2018-09-27T08:23:19.919Z,39.25
2018-09-27T08:28:02.791Z,37.16
2018-09-27T08:32:45.662Z,37.03
2018-09-27T08:37:28.576Z,36.36
2018-09-27T08:42:11.454Z,35.68
2018-09-27T08:46:54.357Z,34.92
2018-09-27T08:51:38.444Z,34.57
2018-09-27T08:56:21.374Z,34.65
2018-09-27T09:01:04.310Z,35.37
2018-09-27T09:05:47.275Z,33.91
2018-09-27T09:10:30.604Z,33.84
2018-09-27T09:15:13.633Z,34.86
2018-09-27T09:19:56.575Z,34.71
2018-09-27T09:24:39.445Z,34.19
2018-09-27T09:29:22.946Z,33.43
2018-09-27T09:34:06.375Z,32.22
2018-09-27T09:38:57.147Z,32.95
2018-09-27T09:43:40.292Z,32.03
2018-09-27T09:48:23.159Z,32.66
2018-09-27T09:53:07.296Z,32.47
2018-09-27T09:57:50.168Z,31.86
2018-09-27T10:02:33.397Z,31.75
2018-09-27T10:07:16.308Z,32.46
2018-09-27T10:12:00.408Z,31.09
2018-09-27T10:16:43.300Z,30.70
2018-09-27T10:21:27.469Z,29.36
2018-09-27T10:26:11.563Z,29.66
2018-09-27T10:32:24.894Z,27.23
2018-09-27T10:37:07.760Z,28.91
2018-09-27T10:41:50.803Z,28.76
2018-09-27T10:46:33.658Z,26.45
2018-09-27T10:51:17.688Z,27.13
2018-09-27T10:56:00.565Z,25.69
2018-09-27T11:00:44.727Z,26.78
2018-09-27T11:05:27.686Z,27.31
2018-09-27T11:10:19.183Z,26.91
2018-09-27T11:15:09.680Z,26.09
2018-09-27T11:20:10.766Z,26.58
2018-09-27T11:24:55.823Z,25.13
2018-09-27T11:29:44.519Z,24.64
2018-09-27T11:34:27.411Z,23.13
2018-09-27T11:39:11.020Z,23.49
2018-09-27T11:43:53.993Z,22.70
2018-09-27T11:48:36.845Z,22.49
2018-09-27T11:53:19.874Z,22.29
2018-09-27T11:58:02.717Z,20.92
2018-09-27T12:02:45.628Z,21.54
2018-09-27T12:07:28.599Z,22.48
2018-09-27T12:12:11.677Z,22.16
2018-09-27T12:16:54.576Z,22.99
2018-09-27T12:21:37.686Z,22.76
2018-09-27T12:26:21.650Z,24.97
2018-09-27T12:31:21.388Z,22.47
2018-09-27T12:36:04.764Z,24.59
2018-09-27T12:40:48.686Z,23.11
2018-09-27T12:45:31.582Z,24.54
2018-09-27T12:50:14.750Z,23.87
2018-09-27T12:54:57.623Z,23.57
2018-09-27T12:59:40.931Z,23.66
2018-09-27T13:04:24.209Z,23.84
2018-09-27T13:09:09.292Z,24.16
2018-09-27T13:13:52.951Z,24.83
2018-09-27T13:18:35.836Z,23.75
2018-09-27T13:23:19.738Z,23.60
2018-09-27T13:28:02.645Z,23.69
2018-09-27T13:32:45.801Z,24.84
2018-09-27T13:37:28.648Z,23.61
2018-09-27T13:42:12.869Z,23.88
2018-09-27T13:46:56.110Z,23.86
2018-09-27T13:51:40.111Z,23.25
2018-09-27T13:56:22.954Z,23.25
2018-09-27T14:01:05.997Z,23.92
2018-09-27T14:05:48.923Z,24.65
2018-09-27T14:10:31.922Z,23.77
2018-09-27T14:15:14.772Z,24.22
2018-09-27T14:19:57.695Z,24.31
2018-09-27T14:24:40.565Z,23.97
2018-09-27T14:29:24.455Z,23.63
2018-09-27T14:34:08.399Z,24.13
2018-09-27T14:38:51.519Z,23.08
2018-09-27T14:43:34.430Z,24.25
2018-09-27T14:48:17.303Z,24.10
2018-09-27T14:53:02.205Z,24.19
2018-09-27T14:57:45.126Z,24.49
2018-09-27T15:07:28.441Z,24.69
2018-09-27T15:12:12.690Z,24.25
2018-09-27T15:16:55.797Z,25.05
2018-09-27T15:21:40.050Z,25.73
2018-09-27T15:26:23.233Z,25.09
2018-09-27T15:31:07.682Z,25.69
2018-09-27T15:35:50.823Z,25.90
2018-09-27T15:40:38.203Z,26.09
2018-09-27T15:45:21.366Z,26.71
2018-09-27T15:50:04.891Z,28.90
2018-09-27T15:54:48.001Z,29.12
2018-09-27T15:59:31.249Z,28.79
2018-09-27T16:04:14.420Z,29.09
2018-09-27T16:08:57.755Z,29.71
2018-09-27T16:13:40.903Z,30.15
2018-09-27T16:18:24.262Z,30.40
2018-09-27T16:23:07.555Z,30.56
2018-09-27T16:27:50.668Z,30.89
2018-09-27T16:32:34.017Z,30.65
2018-09-27T16:37:17.139Z,30.83
2018-09-27T16:42:01.821Z,30.22
2018-09-27T16:46:45.259Z,30.22
2018-09-27T16:51:28.709Z,31.00
2018-09-27T16:56:11.829Z,30.28
2018-09-27T17:01:00.216Z,31.48
2018-09-27T17:05:43.448Z,31.58
2018-09-27T17:10:28.314Z,31.21
2018-09-27T17:15:11.434Z,32.15
2018-09-27T17:19:54.644Z,33.19
2018-09-27T17:24:38.318Z,32.35
2018-09-27T17:29:21.672Z,32.38
2018-09-27T17:34:04.807Z,33.13
2018-09-27T17:38:48.613Z,33.15
2018-09-27T17:43:31.789Z,33.24
2018-09-27T17:48:15.012Z,34.04
2018-09-27T17:52:58.144Z,34.25
2018-09-27T17:57:41.289Z,34.42
2018-09-27T18:02:34.427Z,34.50
2018-09-27T18:07:17.753Z,35.84
2018-09-27T18:12:00.800Z,36.34
2018-09-27T18:16:43.804Z,37.65
2018-09-27T18:21:26.929Z,38.47
2018-09-27T18:26:10.177Z,39.37
2018-09-27T18:30:54.343Z,40.42
2018-09-27T18:35:37.295Z,40.92
2018-09-27T18:40:22.154Z,42.38
2018-09-27T18:45:05.787Z,43.28
2018-09-27T18:49:50.136Z,44.67
2018-09-27T18:54:36.337Z,45.36
2018-09-27T18:59:19.494Z,45.06
2018-09-27T19:04:02.619Z,43.22
2018-09-27T19:08:46.512Z,44.17
2018-09-27T19:13:29.830Z,46.91
2018-09-27T19:18:18.336Z,48.20
2018-09-27T19:23:01.253Z,49.81
2018-09-27T19:28:47.159Z,49.90
2018-09-27T19:33:30.232Z,48.01
2018-09-27T19:38:13.273Z,47.92
2018-09-27T19:42:56.267Z,47.08
2018-09-27T19:47:39.161Z,45.63
2018-09-27T19:52:22.569Z,43.47
2018-09-27T19:57:05.432Z,42.74
2018-09-27T20:01:48.396Z,42.00
2018-09-27T20:06:31.782Z,41.26
2018-09-27T20:11:14.986Z,40.50
2018-09-27T20:15:57.920Z,40.80
2018-09-27T20:20:40.931Z,41.30
2018-09-27T20:25:23.823Z,41.86
2018-09-27T20:30:08.070Z,41.63
2018-09-27T20:34:51.029Z,41.66
2018-09-27T20:39:35.029Z,41.75
2018-09-27T20:44:17.979Z,41.99
2018-09-27T20:49:01.398Z,41.66
2018-09-27T20:53:44.868Z,41.88
2018-09-27T20:58:27.834Z,41.97
2018-09-27T21:03:10.886Z,41.75
2018-09-27T21:07:53.707Z,42.19
2018-09-27T21:12:36.566Z,42.10
2018-09-27T21:17:19.498Z,42.05
2018-09-27T21:22:03.474Z,42.46
2018-09-27T21:26:46.656Z,42.45
2018-09-27T21:31:30.925Z,42.29
2018-09-27T21:36:14.060Z,42.72
2018-09-27T21:40:58.073Z,42.94
2018-09-27T21:45:40.906Z,42.62
2018-09-27T21:50:24.943Z,42.70
2018-09-27T21:55:07.873Z,42.82
2018-09-27T21:59:51.370Z,42.51
2018-09-27T22:04:34.306Z,41.54
2018-09-27T22:09:17.165Z,41.23
2018-09-27T22:14:00.447Z,41.49
2018-09-27T22:18:43.458Z,41.75
2018-09-27T22:23:26.376Z,41.77
2018-09-27T22:28:09.581Z,43.49
2018-09-27T22:32:52.500Z,43.80
2018-09-27T22:37:35.291Z,43.49
2018-09-27T22:42:18.124Z,43.87
2018-09-27T22:47:01.001Z,43.66
2018-09-27T22:51:43.879Z,44.06
2018-09-27T22:56:27.189Z,44.13
2018-09-27T23:01:11.569Z,43.89
2018-09-27T23:05:54.403Z,44.12
2018-09-27T23:19:36.692Z,42.86
2018-09-27T23:24:19.501Z,45.19
2018-09-27T23:29:02.370Z,44.71
2018-09-27T23:33:45.258Z,44.41
2018-09-27T23:38:28.291Z,44.23
2018-09-27T23:43:33.549Z,43.94
2018-09-27T23:53:42.258Z,43.80
2018-09-27T23:58:26.123Z,44.52
